createdAt,value
2022-07-28T00:00:01.038Z,49.28
2022-07-28T00:02:28.038Z,49.76
2022-07-28T00:04:54.675Z,48.46
2022-07-28T00:07:21.173Z,48.50
2022-07-28T00:09:47.661Z,47.73
2022-07-28T00:12:14.451Z,47.28
2022-07-28T00:14:41.263Z,47.98
2022-07-28T00:17:07.873Z,47.00
2022-07-28T00:19:34.557Z,47.20
2022-07-28T00:22:02.529Z,47.31
2022-07-28T00:24:29.330Z,48.50
2022-07-28T00:26:55.781Z,47.72
2022-07-28T00:29:22.241Z,47.46
2022-07-28T00:31:48.764Z,48.36
2022-07-28T00:34:15.577Z,47.26
2022-07-28T00:36:42.283Z,47.89
2022-07-28T00:39:08.843Z,48.74
2022-07-28T00:41:36.499Z,48.59
2022-07-28T00:44:06.344Z,48.64
2022-07-28T00:46:33.206Z,48.99
2022-07-28T00:48:59.845Z,49.39
2022-07-28T00:51:27.456Z,48.78
2022-07-28T00:53:54.955Z,49.12
2022-07-28T00:56:22.103Z,48.70
2022-07-28T00:58:48.991Z,48.92
2022-07-28T01:01:19.643Z,50.58
2022-07-28T01:03:56.040Z,49.93
2022-07-28T01:06:31.686Z,49.81
2022-07-28T01:09:11.411Z,49.94
2022-07-28T01:11:48.607Z,51.32
2022-07-28T01:14:23.975Z,50.22
2022-07-28T01:17:01.961Z,50.38
2022-07-28T01:19:48.974Z,50.50
2022-07-28T01:22:22.202Z,50.65
2022-07-28T01:25:07.268Z,50.49
2022-07-28T01:28:06.028Z,51.19
2022-07-28T01:30:45.966Z,51.40
2022-07-28T01:33:19.125Z,51.15
2022-07-28T01:35:51.423Z,51.35
2022-07-28T01:38:19.984Z,51.71
2022-07-28T01:40:50.343Z,54.20
2022-07-28T01:43:21.605Z,53.14
2022-07-28T01:45:48.086Z,53.88
2022-07-28T01:48:17.291Z,52.65
2022-07-28T01:50:48.851Z,52.98
2022-07-28T01:53:16.808Z,52.59
2022-07-28T01:55:44.713Z,53.08
2022-07-28T01:58:13.851Z,53.46
2022-07-28T02:00:42.793Z,53.85
2022-07-28T02:03:11.734Z,54.90
2022-07-28T02:05:41.367Z,54.74
2022-07-28T02:08:08.986Z,54.50
2022-07-28T02:10:37.566Z,53.44
2022-07-28T02:13:04.374Z,53.56
2022-07-28T02:15:32.480Z,53.51
2022-07-28T02:18:00.401Z,53.71
2022-07-28T02:20:28.285Z,53.99
2022-07-28T02:22:56.273Z,53.80
2022-07-28T02:25:23.032Z,53.93
2022-07-28T02:27:58.220Z,55.54
2022-07-28T02:30:31.971Z,57.45
2022-07-28T02:33:05.666Z,56.13
2022-07-28T02:35:53.328Z,54.82
2022-07-28T02:38:35.191Z,55.28
2022-07-28T02:41:13.099Z,55.15
2022-07-28T02:43:49.333Z,56.39
2022-07-28T02:46:21.981Z,57.04
2022-07-28T02:48:52.913Z,56.62
2022-07-28T02:51:23.496Z,56.89
2022-07-28T02:53:51.030Z,59.57
2022-07-28T02:56:18.235Z,61.96
2022-07-28T02:58:45.784Z,62.59
2022-07-28T03:01:12.754Z,62.60
2022-07-28T03:03:43.972Z,61.23
2022-07-28T03:06:10.933Z,58.51
2022-07-28T03:08:37.473Z,57.41
2022-07-28T03:11:12.119Z,58.18
2022-07-28T03:13:39.891Z,59.32
2022-07-28T03:16:07.379Z,58.03
2022-07-28T03:18:33.890Z,57.61
2022-07-28T03:21:00.742Z,56.89
2022-07-28T03:23:41.782Z,57.40
2022-07-28T03:26:15.470Z,58.56
2022-07-28T03:28:43.782Z,58.11
2022-07-28T03:31:12.202Z,57.06
2022-07-28T03:33:39.076Z,56.62
2022-07-28T03:36:09.228Z,57.48
2022-07-28T03:38:43.728Z,58.48
2022-07-28T03:41:11.369Z,56.53
2022-07-28T03:43:39.191Z,56.82
2022-07-28T03:46:12.824Z,57.04
2022-07-28T03:48:39.981Z,57.08
2022-07-28T03:51:06.508Z,57.46
2022-07-28T03:53:33.207Z,56.67
2022-07-28T03:55:59.686Z,56.59
2022-07-28T03:58:28.907Z,57.23
2022-07-28T04:00:56.108Z,58.17
2022-07-28T04:03:36.487Z,57.05
2022-07-28T04:06:09.152Z,57.23
2022-07-28T04:08:35.700Z,56.84
2022-07-28T04:11:02.209Z,56.37
2022-07-28T04:13:28.923Z,56.91
2022-07-28T04:15:55.376Z,58.11
2022-07-28T04:18:22.035Z,57.19
2022-07-28T04:20:48.698Z,57.32
2022-07-28T04:23:15.185Z,56.81
2022-07-28T04:25:41.781Z,56.51
2022-07-28T04:28:08.333Z,56.38
2022-07-28T04:30:34.986Z,56.73
2022-07-28T04:33:10.197Z,57.32
2022-07-28T04:35:37.877Z,57.07
2022-07-28T04:40:39.766Z,57.24
2022-07-28T04:43:06.336Z,55.97
2022-07-28T04:45:32.995Z,55.00
2022-07-28T04:47:59.577Z,54.71
2022-07-28T04:50:26.636Z,54.07
2022-07-28T04:52:54.311Z,54.84
2022-07-28T04:55:20.855Z,56.92
2022-07-28T04:57:48.111Z,58.29
2022-07-28T05:00:15.355Z,57.67
2022-07-28T05:02:43.223Z,55.82
2022-07-28T05:05:10.938Z,55.57
2022-07-28T05:07:41.115Z,57.20
2022-07-28T05:10:09.528Z,54.87
2022-07-28T05:12:36.423Z,54.80
2022-07-28T05:15:03.799Z,56.55
2022-07-28T05:17:30.305Z,56.78
2022-07-28T05:19:56.857Z,55.39
2022-07-28T05:22:23.315Z,57.06
2022-07-28T05:24:49.823Z,54.42
2022-07-28T05:27:17.535Z,55.37
2022-07-28T05:29:47.040Z,53.74
2022-07-28T05:32:16.524Z,55.16
2022-07-28T05:34:45.332Z,56.52
2022-07-28T05:37:12.078Z,56.34
2022-07-28T05:39:38.661Z,57.50
2022-07-28T05:42:05.303Z,54.79
2022-07-28T05:44:37.612Z,56.92
2022-07-28T05:47:04.722Z,54.71
2022-07-28T05:49:31.534Z,56.27
2022-07-28T05:51:58.047Z,56.74
2022-07-28T05:54:24.638Z,55.60
2022-07-28T05:56:52.680Z,55.72
2022-07-28T05:59:19.163Z,55.63
2022-07-28T06:01:46.064Z,53.71
2022-07-28T06:04:28.970Z,51.44
2022-07-28T06:06:55.991Z,50.38
2022-07-28T06:09:22.484Z,50.00
2022-07-28T06:11:50.501Z,50.94
2022-07-28T06:14:18.021Z,49.50
2022-07-28T06:16:45.062Z,52.68
2022-07-28T06:19:11.658Z,54.00
2022-07-28T06:21:38.224Z,48.90
2022-07-28T06:24:05.186Z,51.35
2022-07-28T06:26:31.648Z,50.60
2022-07-28T06:28:58.692Z,49.96
2022-07-28T06:31:25.199Z,49.16
2022-07-28T06:33:51.786Z,48.83
2022-07-28T06:36:18.306Z,48.20
2022-07-28T06:38:44.800Z,46.85
2022-07-28T06:41:11.270Z,47.18
2022-07-28T06:43:39.325Z,47.72
2022-07-28T06:46:06.257Z,47.43
2022-07-28T06:48:32.979Z,45.55
2022-07-28T06:50:59.703Z,47.72
2022-07-28T06:53:28.101Z,47.12
2022-07-28T06:56:00.668Z,45.99
2022-07-28T06:58:27.123Z,45.42
2022-07-28T07:00:53.744Z,45.51
2022-07-28T07:03:20.287Z,44.39
2022-07-28T07:05:49.058Z,46.73
2022-07-28T07:08:20.789Z,47.35
2022-07-28T07:10:47.324Z,45.71
2022-07-28T07:13:14.083Z,48.76
2022-07-28T07:15:40.829Z,45.13
2022-07-28T07:18:07.394Z,42.85
2022-07-28T07:20:33.964Z,41.62
2022-07-28T07:23:00.488Z,41.04
2022-07-28T07:25:27.151Z,39.72
2022-07-28T07:27:53.642Z,40.07
2022-07-28T07:30:20.421Z,40.30
2022-07-28T07:32:46.885Z,39.29
2022-07-28T07:35:13.456Z,36.72
2022-07-28T07:37:40.535Z,39.93
2022-07-28T07:40:07.786Z,41.96
2022-07-28T07:42:34.713Z,41.02
2022-07-28T07:45:01.555Z,43.00
2022-07-28T07:47:28.530Z,39.89
2022-07-28T07:49:55.118Z,42.67
2022-07-28T07:52:21.628Z,40.27
2022-07-28T07:54:48.260Z,40.77
2022-07-28T07:57:14.849Z,39.83
2022-07-28T07:59:41.669Z,38.17
2022-07-28T08:02:08.786Z,37.59
2022-07-28T08:04:37.124Z,39.90
2022-07-28T08:07:04.338Z,37.81
2022-07-28T08:09:32.404Z,36.17
2022-07-28T08:11:58.900Z,38.50
2022-07-28T08:14:25.457Z,37.74
2022-07-28T08:16:52.390Z,36.12
2022-07-28T08:19:21.597Z,38.14
2022-07-28T08:21:48.318Z,36.05
2022-07-28T08:24:27.600Z,35.99
2022-07-28T08:26:59.783Z,35.83
2022-07-28T08:29:26.293Z,38.07
2022-07-28T08:31:52.870Z,37.33
2022-07-28T08:34:31.276Z,36.66
2022-07-28T08:37:01.339Z,36.75
2022-07-28T08:39:28.070Z,38.82
2022-07-28T08:42:07.255Z,38.18
2022-07-28T08:44:45.806Z,37.75
2022-07-28T08:47:12.828Z,35.77
2022-07-28T08:49:45.102Z,36.23
2022-07-28T08:52:13.687Z,37.24
2022-07-28T08:54:45.944Z,36.63
2022-07-28T08:57:20.247Z,35.96
2022-07-28T08:59:49.058Z,35.97
2022-07-28T09:02:16.477Z,35.98
2022-07-28T09:04:46.154Z,36.19
2022-07-28T09:07:13.589Z,36.36
2022-07-28T09:09:40.325Z,37.83
2022-07-28T09:12:07.275Z,39.29
2022-07-28T09:14:34.373Z,38.20
2022-07-28T09:17:02.155Z,36.17
2022-07-28T09:19:34.333Z,35.73
2022-07-28T09:22:03.421Z,37.12
2022-07-28T09:24:32.986Z,35.92
2022-07-28T09:27:01.557Z,37.05
2022-07-28T09:29:28.042Z,38.52
2022-07-28T09:31:57.180Z,36.67
2022-07-28T09:34:24.181Z,36.93
2022-07-28T09:36:50.791Z,35.72
2022-07-28T09:39:30.175Z,37.63
2022-07-28T09:41:56.644Z,35.97
2022-07-28T09:44:24.641Z,36.86
2022-07-28T09:46:51.847Z,35.91
2022-07-28T09:49:19.012Z,36.77
2022-07-28T09:52:03.508Z,36.56
2022-07-28T09:54:30.083Z,35.86
2022-07-28T09:56:56.656Z,33.99
2022-07-28T09:59:24.021Z,34.11
2022-07-28T10:01:59.181Z,33.76
2022-07-28T10:04:36.501Z,33.51
2022-07-28T10:07:02.950Z,34.06
2022-07-28T10:09:29.446Z,34.93
2022-07-28T10:12:21.300Z,37.28
2022-07-28T10:14:51.641Z,37.32
2022-07-28T10:17:31.269Z,36.08
2022-07-28T10:19:59.783Z,34.63
2022-07-28T10:22:33.557Z,33.87
2022-07-28T10:25:08.040Z,36.05
2022-07-28T10:27:35.103Z,36.49
2022-07-28T10:30:04.245Z,36.11
2022-07-28T10:32:38.134Z,33.82
2022-07-28T10:35:17.637Z,33.74
2022-07-28T10:37:59.383Z,33.31
2022-07-28T10:40:31.716Z,34.52
2022-07-28T10:43:00.206Z,34.20
2022-07-28T10:45:47.977Z,35.43
2022-07-28T10:48:15.331Z,33.08
2022-07-28T10:50:42.429Z,32.68
2022-07-28T10:53:11.868Z,34.02
2022-07-28T10:56:02.483Z,33.55
2022-07-28T10:59:01.424Z,31.81
2022-07-28T11:01:54.135Z,34.46
2022-07-28T11:04:46.840Z,32.88
2022-07-28T11:07:18.343Z,32.42
2022-07-28T11:09:47.438Z,32.34
2022-07-28T11:12:17.321Z,32.68
2022-07-28T11:14:44.682Z,31.21
2022-07-28T11:17:11.422Z,31.97
2022-07-28T11:19:42.359Z,30.89
2022-07-28T11:22:29.090Z,32.09
2022-07-28T11:24:56.851Z,33.42
2022-07-28T11:27:59.710Z,31.76
2022-07-28T11:30:26.404Z,32.49
2022-07-28T11:32:55.667Z,30.91
2022-07-28T11:35:26.543Z,31.38
2022-07-28T11:38:02.155Z,31.00
2022-07-28T11:40:32.749Z,31.82
2022-07-28T11:43:36.374Z,31.87
2022-07-28T11:46:10.404Z,32.01
2022-07-28T11:48:40.691Z,32.31
2022-07-28T11:51:07.238Z,32.84
2022-07-28T11:53:51.087Z,32.50
2022-07-28T11:56:29.057Z,32.27
2022-07-28T11:59:02.945Z,32.05
2022-07-28T12:01:31.895Z,31.73
2022-07-28T12:03:59.975Z,31.38
2022-07-28T12:06:38.753Z,32.13
2022-07-28T12:09:08.078Z,33.08
2022-07-28T12:11:36.284Z,31.58
2022-07-28T12:14:14.574Z,31.88
2022-07-28T12:16:43.412Z,31.88
2022-07-28T12:19:11.489Z,31.29
2022-07-28T12:21:48.085Z,31.93
2022-07-28T12:24:18.730Z,32.30
2022-07-28T12:26:49.241Z,31.38
2022-07-28T12:29:17.054Z,30.97
2022-07-28T12:31:54.329Z,31.42
2022-07-28T12:34:21.932Z,31.38
2022-07-28T12:36:58.519Z,31.09
2022-07-28T12:39:25.947Z,32.84
2022-07-28T12:42:04.330Z,31.42
2022-07-28T12:44:40.807Z,30.75
2022-07-28T12:47:09.570Z,30.48
2022-07-28T12:49:37.326Z,32.63
2022-07-28T12:52:23.663Z,31.75
2022-07-28T12:54:56.393Z,30.99
2022-07-28T12:57:44.545Z,30.23
2022-07-28T13:00:15.377Z,30.49
2022-07-28T13:02:41.978Z,29.45
2022-07-28T13:05:08.837Z,29.42
2022-07-28T13:07:35.379Z,30.14
2022-07-28T13:10:04.068Z,29.58
2022-07-28T13:12:31.448Z,31.58
2022-07-28T13:14:59.858Z,31.15
2022-07-28T13:17:31.780Z,31.25
2022-07-28T13:20:13.148Z,30.98
2022-07-28T13:22:40.636Z,32.00
2022-07-28T13:25:08.062Z,31.23
2022-07-28T13:27:35.149Z,30.01
2022-07-28T13:30:02.125Z,30.18
2022-07-28T13:32:28.764Z,32.54
2022-07-28T13:34:56.972Z,30.30
2022-07-28T13:37:23.541Z,31.93
2022-07-28T13:39:54.419Z,30.71
2022-07-28T13:42:21.134Z,29.63
2022-07-28T13:44:50.308Z,29.15
2022-07-28T13:47:17.291Z,29.77
2022-07-28T13:49:43.997Z,28.66
2022-07-28T13:52:17.185Z,28.66
2022-07-28T13:54:59.891Z,28.48
2022-07-28T13:57:30.844Z,28.36
2022-07-28T13:59:57.444Z,28.83
2022-07-28T14:02:26.011Z,29.20
2022-07-28T14:04:52.766Z,30.25
2022-07-28T14:07:20.659Z,29.74
2022-07-28T14:09:48.067Z,28.63
2022-07-28T14:12:14.652Z,28.70
2022-07-28T14:14:47.909Z,29.53
2022-07-28T14:17:40.108Z,29.30
2022-07-28T14:20:02.405Z,28.85
2022-07-28T14:22:28.877Z,28.66
2022-07-28T14:24:55.326Z,28.45
2022-07-28T14:27:25.870Z,27.70
2022-07-28T14:29:55.267Z,28.29
2022-07-28T14:32:21.769Z,29.04
2022-07-28T14:34:48.333Z,28.27
2022-07-28T14:37:15.267Z,27.00
2022-07-28T14:39:42.041Z,26.68
2022-07-28T14:42:10.287Z,27.66
2022-07-28T14:44:37.014Z,27.38
2022-07-28T14:47:03.849Z,27.10
2022-07-28T14:49:30.433Z,27.33
2022-07-28T14:51:57.845Z,26.23
2022-07-28T14:54:24.395Z,28.02
2022-07-28T14:56:51.916Z,26.78
2022-07-28T14:59:18.377Z,27.03
2022-07-28T15:01:44.985Z,26.97
2022-07-28T15:04:15.650Z,27.52
2022-07-28T15:06:42.448Z,26.75
2022-07-28T15:09:09.425Z,26.05
2022-07-28T15:11:35.911Z,25.91
2022-07-28T15:14:02.502Z,26.63
2022-07-28T15:16:29.014Z,26.32
2022-07-28T15:18:55.561Z,25.88
2022-07-28T15:21:22.056Z,27.13
2022-07-28T15:23:48.596Z,27.25
2022-07-28T15:26:15.274Z,28.76
2022-07-28T15:28:41.802Z,29.64
2022-07-28T15:31:08.467Z,29.62
2022-07-28T15:33:43.867Z,28.99
2022-07-28T15:36:15.481Z,29.37
2022-07-28T15:38:41.998Z,29.76
2022-07-28T15:41:15.027Z,27.54
2022-07-28T15:43:41.979Z,27.55
2022-07-28T15:46:11.006Z,27.98
2022-07-28T15:48:39.176Z,28.09
2022-07-28T15:51:05.774Z,27.42
2022-07-28T15:53:32.360Z,28.25
2022-07-28T15:55:58.824Z,28.85
2022-07-28T15:58:28.334Z,28.19
2022-07-28T16:00:54.858Z,27.42
2022-07-28T16:03:22.713Z,27.33
2022-07-28T16:05:50.386Z,26.98
2022-07-28T16:08:18.548Z,27.25
2022-07-28T16:10:49.680Z,27.74
2022-07-28T16:13:22.721Z,26.91
2022-07-28T16:16:02.467Z,29.13
2022-07-28T16:18:29.278Z,27.59
2022-07-28T16:20:55.784Z,28.95
2022-07-28T16:23:22.269Z,27.45
2022-07-28T16:25:48.776Z,27.87
2022-07-28T16:28:15.931Z,29.28
2022-07-28T16:30:42.420Z,28.15
2022-07-28T16:33:09.074Z,27.14
2022-07-28T16:35:35.551Z,28.11
2022-07-28T16:38:03.633Z,29.11
2022-07-28T16:40:30.388Z,28.63
2022-07-28T16:42:59.846Z,28.08
2022-07-28T16:45:30.800Z,29.79
2022-07-28T16:47:58.107Z,28.70
2022-07-28T16:50:24.752Z,27.68
2022-07-28T16:52:52.334Z,28.25
2022-07-28T16:55:23.374Z,27.70
2022-07-28T16:57:50.861Z,28.67
2022-07-28T17:00:17.645Z,30.16
2022-07-28T17:02:44.461Z,28.37
2022-07-28T17:05:12.076Z,29.79
2022-07-28T17:07:45.155Z,28.42
2022-07-28T17:10:14.117Z,27.62
2022-07-28T17:12:40.584Z,27.97
2022-07-28T17:15:07.741Z,28.21
2022-07-28T17:17:48.510Z,29.45
2022-07-28T17:20:16.521Z,29.97
2022-07-28T17:22:43.206Z,31.34
2022-07-28T17:25:28.448Z,31.35
2022-07-28T17:27:56.355Z,30.67
2022-07-28T17:30:22.836Z,31.69
2022-07-28T17:32:49.314Z,30.81
2022-07-28T17:35:34.647Z,30.16
2022-07-28T17:38:03.595Z,31.84
2022-07-28T17:40:30.644Z,32.30
2022-07-28T17:42:57.195Z,32.42
2022-07-28T17:45:24.405Z,32.13
2022-07-28T17:47:51.161Z,32.80
2022-07-28T17:50:17.740Z,32.67
2022-07-28T17:52:45.166Z,31.43
2022-07-28T17:55:31.304Z,31.89
2022-07-28T17:58:10.013Z,30.53
2022-07-28T18:00:36.636Z,31.07
2022-07-28T18:03:03.217Z,32.37
2022-07-28T18:05:40.470Z,32.68
2022-07-28T18:08:07.794Z,32.04
2022-07-28T18:10:34.846Z,32.94
2022-07-28T18:13:01.499Z,32.74
2022-07-28T18:15:28.710Z,33.24
2022-07-28T18:17:57.430Z,32.30
2022-07-28T18:20:24.632Z,31.35
2022-07-28T18:22:51.268Z,31.78
2022-07-28T18:25:17.807Z,32.38
2022-07-28T18:27:44.315Z,31.90
2022-07-28T18:30:11.342Z,32.94
2022-07-28T18:32:37.827Z,33.50
2022-07-28T18:35:04.503Z,33.32
2022-07-28T18:37:31.125Z,33.31
2022-07-28T18:39:57.656Z,34.52
2022-07-28T18:42:24.254Z,34.26
2022-07-28T18:44:50.907Z,33.83
2022-07-28T18:47:17.427Z,34.23
2022-07-28T18:49:43.992Z,34.45
2022-07-28T18:52:10.465Z,34.81
2022-07-28T18:54:37.040Z,34.86
2022-07-28T18:57:03.617Z,34.91
2022-07-28T18:59:30.132Z,34.76
2022-07-28T19:01:56.714Z,35.31
2022-07-28T19:04:23.296Z,35.03
2022-07-28T19:06:50.404Z,35.56
2022-07-28T19:09:16.877Z,35.29
2022-07-28T19:11:46.331Z,36.05
2022-07-28T19:14:14.675Z,36.27
2022-07-28T19:16:41.609Z,36.16
2022-07-28T19:19:08.143Z,35.43
2022-07-28T19:21:34.954Z,36.38
2022-07-28T19:24:01.851Z,36.20
2022-07-28T19:26:29.532Z,36.52
2022-07-28T19:28:56.177Z,36.30
2022-07-28T19:31:22.921Z,37.07
2022-07-28T19:33:49.598Z,36.49
2022-07-28T19:36:16.168Z,35.71
2022-07-28T19:38:43.918Z,35.80
2022-07-28T19:41:12.873Z,36.10
2022-07-28T19:43:39.375Z,36.94
2022-07-28T19:46:06.105Z,37.29
2022-07-28T19:48:34.086Z,36.83
2022-07-28T19:51:00.902Z,36.56
2022-07-28T19:53:32.358Z,37.42
2022-07-28T19:56:01.231Z,38.13
2022-07-28T19:58:28.377Z,37.74
2022-07-28T20:00:56.506Z,37.73
2022-07-28T20:04:03.368Z,38.45
2022-07-28T20:06:10.033Z,38.32
2022-07-28T20:08:36.765Z,38.35
2022-07-28T20:11:03.435Z,38.51
2022-07-28T20:13:29.949Z,38.71
2022-07-28T20:15:56.422Z,39.77
2022-07-28T20:18:22.917Z,39.02
2022-07-28T20:20:49.556Z,39.14
2022-07-28T20:23:16.153Z,40.10
2022-07-28T20:25:45.247Z,38.45
2022-07-28T20:28:12.343Z,39.18
2022-07-28T20:30:40.114Z,38.71
2022-07-28T20:33:07.918Z,39.80
2022-07-28T20:35:34.517Z,40.49
2022-07-28T20:38:01.902Z,39.61
2022-07-28T20:40:28.396Z,40.19
2022-07-28T20:42:55.044Z,40.54
2022-07-28T20:45:22.855Z,40.39
2022-07-28T20:47:49.326Z,40.54
2022-07-28T20:50:16.032Z,40.67
2022-07-28T20:52:42.561Z,39.94
2022-07-28T20:55:11.229Z,39.74
2022-07-28T20:57:38.432Z,39.77
2022-07-28T21:00:06.096Z,39.03
2022-07-28T21:02:32.591Z,40.19
2022-07-28T21:04:59.061Z,40.23
2022-07-28T21:08:04.898Z,39.96
2022-07-28T21:10:12.078Z,41.24
2022-07-28T21:12:38.800Z,40.13
2022-07-28T21:15:06.438Z,40.50
2022-07-28T21:17:33.157Z,40.26
2022-07-28T21:20:02.310Z,41.45
2022-07-28T21:22:29.049Z,40.67
2022-07-28T21:24:55.948Z,40.70
2022-07-28T21:27:23.558Z,41.35
2022-07-28T21:32:17.095Z,41.06
2022-07-28T21:34:43.558Z,41.40
2022-07-28T21:37:11.527Z,41.23
2022-07-28T21:39:41.671Z,42.64
2022-07-28T21:42:09.353Z,41.10
2022-07-28T21:44:37.298Z,39.85
2022-07-28T21:47:04.421Z,41.79
2022-07-28T21:49:31.357Z,41.14
2022-07-28T21:51:58.136Z,40.30
2022-07-28T21:54:24.716Z,41.59
2022-07-28T21:56:51.155Z,40.51
2022-07-28T21:59:17.614Z,38.96
2022-07-28T22:01:44.117Z,38.65
2022-07-28T22:04:10.668Z,38.30
2022-07-28T22:06:37.108Z,37.99
2022-07-28T22:09:03.749Z,38.27
2022-07-28T22:11:30.606Z,39.26
2022-07-28T22:13:57.218Z,42.09
2022-07-28T22:16:23.790Z,41.45
2022-07-28T22:18:50.318Z,41.61
2022-07-28T22:21:16.859Z,42.00
2022-07-28T22:23:43.346Z,39.44
2022-07-28T22:26:09.785Z,40.59
2022-07-28T22:28:36.302Z,38.81
2022-07-28T22:31:08.880Z,38.56
2022-07-28T22:33:39.906Z,39.65
2022-07-28T22:36:08.636Z,39.04
2022-07-28T22:38:35.914Z,38.95
2022-07-28T22:41:02.436Z,38.69
2022-07-28T22:43:28.961Z,40.90
2022-07-28T22:45:55.434Z,40.56
2022-07-28T22:48:21.999Z,39.48
2022-07-28T22:50:48.458Z,39.66
2022-07-28T22:53:14.954Z,38.98
2022-07-28T22:55:41.463Z,39.87
2022-07-28T22:58:07.961Z,40.22
2022-07-28T23:00:36.503Z,39.47
2022-07-28T23:03:04.170Z,39.56
2022-07-28T23:05:30.863Z,39.87
2022-07-28T23:07:58.925Z,40.18
2022-07-28T23:10:26.394Z,39.51
2022-07-28T23:12:56.086Z,41.73
2022-07-28T23:15:24.994Z,41.25
2022-07-28T23:18:06.821Z,40.40
2022-07-28T23:20:33.294Z,42.28
2022-07-28T23:22:59.760Z,41.33
2022-07-28T23:25:26.205Z,42.54
2022-07-28T23:27:52.692Z,44.57
2022-07-28T23:30:19.309Z,45.20
2022-07-28T23:32:45.785Z,45.94
2022-07-28T23:35:12.297Z,43.73
2022-07-28T23:37:38.778Z,43.48
2022-07-28T23:40:05.827Z,43.96
2022-07-28T23:42:32.330Z,44.29
2022-07-28T23:44:58.830Z,42.24
2022-07-28T23:47:25.340Z,43.38
2022-07-28T23:49:51.811Z,42.97
2022-07-28T23:52:18.439Z,42.38
2022-07-28T23:54:44.932Z,43.37
2022-07-28T23:57:11.482Z,42.45
2022-07-28T23:59:37.942Z,42.81
